Terminal Aerodrome Forecast
Issued by NWS

Home | Current Version | Previous Version | Text Only | Print | Product List | Glossary On
Versions: 1 2 3 4 5 6 7 8 9 10 11 12
000
FTUS44 KSJT 042330
TAFBBD
TAF
KBBD 042330Z 0500/0524 36007KT P6SM OVC017
      TEMPO 0501/0505 4SM -RA OVC007
     FM050500 01005KT 3SM -RA BR OVC007
     FM051200 01004KT 2SM -RA BR OVC007
     FM051600 01004KT 4SM -RA BR OVC007
     FM052000 24003KT P6SM -RA OVC015
      AMD NOT SKED=

USA.gov is the U.S. government's official web portal to all federal, state and local government web resources and services.